Time;durP1;ratioP1;P1;durP2;ratioP2;P2;SDS_P1;SDS_P2;PMS_P1;PMS_P2;Temp;Humidity;BMP_temperature;BMP_pressure;BME280_temperature;BME280_humidity;BME280_pressure;Samples;Min_cycle;Max_cycle;Signal;HPM_P1;HPM_P2
2022/12/03 00:03:53;;;;;;;41.17;15.70;;;3.50;99.90;;;1.11;100.00;100938.97;10576265;27;20059;-82
2022/12/03 00:08:56;;;;;;;33.47;13.73;;;3.40;99.90;;;1.10;100.00;100940.75;10590378;27;20560;-82
2022/12/03 00:14:00;;;;;;;39.27;14.10;;;3.50;99.90;;;1.11;100.00;100945.06;10562892;28;20060;-83
2022/12/03 00:19:03;;;;;;;32.87;14.03;;;3.40;99.90;;;1.09;100.00;100946.09;10586991;27;20588;-82
2022/12/03 00:24:07;;;;;;;30.80;13.50;;;3.40;99.90;;;1.08;100.00;100947.88;10614844;27;20062;-82
2022/12/03 00:29:10;;;;;;;30.10;13.30;;;3.40;99.90;;;1.09;100.00;100941.69;10574006;27;20420;-81
2022/12/03 00:34:13;;;;;;;29.43;12.27;;;3.40;99.90;;;1.10;100.00;100956.47;10604354;27;20129;-81
2022/12/03 00:39:16;;;;;;;37.87;14.47;;;3.40;99.90;;;1.11;100.00;100949.44;10592115;27;20055;-81
2022/12/03 00:44:19;;;;;;;33.23;13.63;;;3.50;99.90;;;1.13;100.00;100964.13;10647127;27;20067;-81
2022/12/03 00:49:21;;;;;;;43.47;15.23;;;3.50;99.90;;;1.13;100.00;100952.81;10626381;27;20083;-81
2022/12/03 00:54:24;;;;;;;35.17;13.43;;;3.50;99.90;;;1.12;100.00;100961.59;10586320;27;20071;-81
2022/12/03 00:59:33;;;;;;;29.40;10.93;;;3.50;99.90;;;1.11;100.00;100959.91;10597236;27;20091;-81
2022/12/03 01:04:37;;;;;;;34.80;13.87;;;3.50;99.90;;;1.11;100.00;100958.13;10575394;27;20109;-81
2022/12/03 01:09:40;;;;;;;39.27;14.10;;;3.50;99.90;;;1.12;100.00;100951.97;10616146;27;20083;-82
2022/12/03 01:14:43;;;;;;;34.80;12.27;;;3.50;99.90;;;1.12;100.00;100949.34;10613010;27;20522;-82
2022/12/03 01:19:47;;;;;;;27.20;11.57;;;3.50;99.90;;;1.14;100.00;100955.34;10627131;27;20129;-81
2022/12/03 01:24:50;;;;;;;36.33;15.03;;;3.50;99.90;;;1.15;100.00;100959.66;10590275;27;20059;-81
2022/12/03 01:29:54;;;;;;;32.17;13.60;;;3.50;99.90;;;1.11;100.00;100952.91;10594376;27;20139;-81
2022/12/03 01:34:56;;;;;;;35.30;13.17;;;3.50;99.90;;;1.11;100.00;100955.53;10592353;27;20060;-82
2022/12/03 01:39:59;;;;;;;26.07;11.13;;;3.50;99.90;;;1.10;100.00;100955.63;10596334;27;20551;-82
2022/12/03 01:45:03;;;;;;;34.57;13.93;;;3.40;99.90;;;1.09;100.00;100967.03;10584980;27;20066;-82
2022/12/03 01:50:33;;;;;;;35.77;13.27;;;3.50;99.90;;;1.10;100.00;100966.09;10586566;27;20064;-81
2022/12/03 01:55:37;;;;;;;32.93;12.03;;;3.50;99.90;;;1.10;100.00;100969.53;10619443;27;20143;-81
2022/12/03 02:00:40;;;;;;;33.83;12.30;;;3.40;99.90;;;1.09;100.00;100973.09;10572786;27;20052;-81
2022/12/03 02:05:43;;;;;;;31.60;13.63;;;3.40;99.90;;;1.07;100.00;100972.31;10579995;27;20066;-81
2022/12/03 02:10:46;;;;;;;29.77;11.70;;;3.40;99.90;;;1.06;100.00;100963.63;10609914;27;20059;-81
2022/12/03 02:15:49;;;;;;;33.80;13.80;;;3.40;99.90;;;1.08;100.00;100963.56;10583605;27;20060;-81
2022/12/03 02:21:00;;;;;;;32.80;13.07;;;3.40;99.90;;;1.04;100.00;100959.44;10572134;27;20067;-81
2022/12/03 02:26:03;;;;;;;35.10;13.30;;;3.40;99.90;;;1.03;100.00;100952.50;10594456;27;20122;-81
2022/12/03 02:31:06;;;;;;;37.97;14.90;;;3.40;99.90;;;1.05;100.00;100955.88;10592983;27;20714;-81
2022/12/03 02:36:11;;;;;;;45.47;16.93;;;3.40;99.90;;;1.06;100.00;100958.41;10593045;27;20064;-81
2022/12/03 02:46:39;;;;;;;36.57;14.10;;;3.40;99.90;;;1.05;100.00;100958.50;10609650;27;20052;-81
2022/12/03 02:51:42;;;;;;;37.03;15.50;;;3.40;99.90;;;1.04;100.00;100959.44;10611505;27;20059;-82
2022/12/03 02:56:45;;;;;;;32.27;12.50;;;3.40;99.90;;;1.04;100.00;100964.66;10568564;27;20064;-82
2022/12/03 03:01:48;;;;;;;31.67;12.20;;;3.40;99.90;;;1.04;100.00;100960.28;10561539;27;20139;-82
2022/12/03 03:06:51;;;;;;;36.03;13.43;;;3.40;99.90;;;1.05;100.00;100961.94;10597807;27;20060;-82
2022/12/03 03:11:54;;;;;;;38.30;15.07;;;3.40;99.90;;;1.03;100.00;100960.38;10550647;28;20056;-82
2022/12/03 03:16:57;;;;;;;39.00;13.00;;;3.40;99.90;;;1.04;100.00;100954.19;10531571;27;20056;-82
2022/12/03 03:22:01;;;;;;;31.23;13.77;;;3.40;99.90;;;1.07;100.00;100948.75;10541769;27;20102;-82
2022/12/03 03:27:04;;;;;;;36.73;12.80;;;3.40;99.90;;;1.09;100.00;100952.16;10546693;27;20060;-82
2022/12/03 03:32:07;;;;;;;33.80;13.30;;;3.40;99.90;;;1.11;100.00;100960.75;10560073;27;20067;-82
2022/12/03 03:37:10;;;;;;;28.10;11.33;;;3.40;99.90;;;1.11;100.00;100958.13;10571191;28;20062;-81
2022/12/03 03:42:14;;;;;;;25.40;10.60;;;3.50;99.90;;;1.13;100.00;100963.28;10568792;27;20059;-81
2022/12/03 03:47:18;;;;;;;37.13;13.13;;;3.50;99.90;;;1.14;100.00;100960.59;10557533;27;20484;-81
2022/12/03 03:52:21;;;;;;;28.47;12.80;;;3.50;99.90;;;1.15;100.00;100958.81;10598461;27;20051;-81
2022/12/03 03:57:24;;;;;;;33.80;14.10;;;3.50;99.90;;;1.15;100.00;100959.66;10576072;27;20056;-81
2022/12/03 04:02:27;;;;;;;31.07;11.77;;;3.50;99.90;;;1.13;100.00;100953.66;10570788;27;20063;-81
2022/12/03 04:07:30;;;;;;;28.83;13.27;;;3.50;99.90;;;1.14;100.00;100955.34;10588711;28;20055;-80
2022/12/03 04:23:16;;;;;;;36.90;14.10;;;3.50;99.90;;;1.14;100.00;100960.59;10545939;27;20534;-81
2022/12/03 04:39:12;;;;;;;25.20;9.13;;;3.50;99.90;;;1.16;100.00;100958.72;10523083;27;21996;-81
2022/12/03 04:49:41;;;;;;;29.77;11.13;;;3.50;99.90;;;1.19;100.00;100947.22;10573546;28;20060;-81
2022/12/03 04:54:44;;;;;;;29.10;12.13;;;3.60;99.90;;;1.20;100.00;100960.25;10579982;27;20059;-81
2022/12/03 04:59:47;;;;;;;25.17;11.70;;;3.60;99.90;;;1.23;100.00;100957.44;10571532;28;20067;-81
2022/12/03 05:04:50;;;;;;;33.27;13.27;;;3.60;99.90;;;1.24;100.00;100972.19;10620386;27;20499;-81
2022/12/03 05:09:54;;;;;;;27.27;11.80;;;3.60;99.90;;;1.28;100.00;100973.72;10587425;27;20063;-81
2022/12/03 05:14:57;;;;;;;27.80;12.40;;;3.60;99.90;;;1.29;100.00;100972.78;10584933;27;20082;-81
2022/12/03 05:25:21;;;;;;;31.98;12.90;;;3.70;99.90;;;1.28;100.00;100978.09;10632344;27;20142;-81
2022/12/03 05:30:24;;;;;;;34.10;14.55;;;3.60;99.90;;;1.29;100.00;100982.41;10571649;27;20064;-81
2022/12/03 05:35:28;;;;;;;26.63;11.93;;;3.60;99.90;;;1.29;100.00;100987.66;10593687;27;20485;-81
2022/12/03 05:40:31;;;;;;;34.67;15.17;;;3.60;99.90;;;1.27;100.00;100985.13;10572439;27;20137;-82
2022/12/03 05:45:39;;;;;;;28.33;14.20;;;3.60;99.90;;;1.27;100.00;100979.88;10593653;27;20154;-82
2022/12/03 05:50:44;;;;;;;31.93;13.43;;;3.60;99.90;;;1.27;100.00;100972.03;10627901;27;20507;-81
2022/12/03 05:55:47;;;;;;;24.27;11.70;;;3.60;99.90;;;1.30;100.00;100976.22;10610837;27;20533;-81
2022/12/03 06:00:50;;;;;;;28.37;12.97;;;3.70;99.90;;;1.32;100.00;100990.94;10646346;27;20066;-81
2022/12/03 06:05:53;;;;;;;31.33;12.67;;;3.70;99.90;;;1.36;100.00;100996.00;10591352;27;20055;-81
2022/12/03 06:10:56;;;;;;;32.37;13.33;;;3.70;99.90;;;1.38;100.00;101000.22;10601287;27;20066;-81
2022/12/03 06:15:59;;;;;;;36.47;14.60;;;3.70;99.90;;;1.41;100.00;101014.91;10595091;27;20059;-81
2022/12/03 06:21:02;;;;;;;33.53;14.67;;;3.80;99.90;;;1.43;100.00;101007.78;10644825;27;20117;-81
2022/12/03 06:26:05;;;;;;;34.90;14.30;;;3.80;99.90;;;1.44;100.00;101006.84;10589405;27;20059;-81
2022/12/03 06:31:08;;;;;;;42.90;16.93;;;3.80;99.90;;;1.44;100.00;100980.66;10593387;27;20079;-81
2022/12/03 06:36:11;;;;;;;34.37;15.90;;;3.80;99.90;;;1.47;100.00;100990.97;10605922;27;20101;-81
2022/12/03 06:41:14;;;;;;;29.13;15.07;;;3.80;99.90;;;1.49;100.00;100992.53;10586807;27;20055;-81
2022/12/03 06:46:17;;;;;;;31.33;14.67;;;3.80;99.90;;;1.50;100.00;100994.25;10589034;27;20055;-81
2022/12/03 06:51:20;;;;;;;32.23;14.10;;;3.90;99.90;;;1.52;100.00;100996.78;10583154;27;20086;-81
2022/12/03 06:56:23;;;;;;;34.50;14.50;;;3.90;99.90;;;1.54;100.00;101005.38;10572834;27;20464;-81
2022/12/03 07:01:28;;;;;;;41.17;16.17;;;3.90;99.90;;;1.55;100.00;101002.66;10573685;27;20083;-81
2022/12/03 07:06:31;;;;;;;36.97;15.27;;;3.90;99.90;;;1.60;100.00;101008.47;10586319;27;20063;-81
2022/12/03 07:11:39;;;;;;;33.83;14.80;;;4.00;99.90;;;1.63;100.00;101010.09;10608233;27;20059;-81
2022/12/03 07:16:42;;;;;;;30.40;14.87;;;4.00;99.90;;;1.66;100.00;101009.91;10613714;27;20052;-82
2022/12/03 07:21:45;;;;;;;25.40;12.67;;;4.00;99.90;;;1.70;100.00;101015.81;10602136;27;20088;-82
2022/12/03 07:26:48;;;;;;;26.77;12.37;;;4.00;99.90;;;1.71;100.00;101007.00;10629876;27;20055;-81
2022/12/03 07:31:52;;;;;;;25.27;11.27;;;4.10;99.90;;;1.73;100.00;101003.34;10560834;27;20067;-82
2022/12/03 07:36:55;;;;;;;35.67;14.23;;;4.10;99.90;;;1.79;100.00;101015.25;10601745;27;20056;-82
2022/12/03 07:41:58;;;;;;;31.80;14.03;;;4.10;99.90;;;1.82;100.00;101013.28;10618190;27;20063;-82
2022/12/03 07:47:01;;;;;;;33.73;13.77;;;4.20;99.90;;;1.85;100.00;101004.41;10592867;27;20067;-82
2022/12/03 07:52:05;;;;;;;32.83;13.00;;;4.20;99.90;;;1.87;100.00;101018.28;10637559;27;20056;-82
2022/12/03 07:57:08;;;;;;;33.43;13.30;;;4.20;99.90;;;1.87;100.00;101013.03;10567496;27;20118;-82
2022/12/03 08:02:11;;;;;;;28.80;12.47;;;4.20;99.90;;;1.90;100.00;101022.47;10586131;27;20067;-82
2022/12/03 08:07:23;;;;;;;27.37;11.83;;;4.20;99.90;;;1.93;100.00;101025.75;10576966;27;20427;-81
2022/12/03 08:12:40;;;;;;;26.87;12.07;;;4.30;99.90;;;1.97;100.00;101029.88;10548652;27;20140;-81
2022/12/03 08:17:46;;;;;;;29.70;12.83;;;4.30;99.90;;;2.02;100.00;101034.84;10593112;27;20060;-81
2022/12/03 08:22:52;;;;;;;32.03;14.10;;;4.40;99.90;;;2.02;100.00;101019.09;10594620;27;20174;-81
2022/12/03 08:28:09;;;;;;;39.07;16.13;;;4.40;99.90;;;2.09;100.00;101017.78;10588412;27;20137;-81
2022/12/03 08:33:34;;;;;;;83.97;29.47;;;4.40;99.90;;;2.16;100.00;101013.88;10594519;27;20568;-81
2022/12/03 08:38:36;;;;;;;42.27;17.43;;;4.50;99.90;;;2.19;100.00;101016.31;10573361;27;20125;-80
2022/12/03 08:43:42;;;;;;;36.60;15.43;;;4.50;99.90;;;2.19;100.00;101024.16;10570829;27;20060;-81
2022/12/03 08:48:46;;;;;;;41.93;17.50;;;4.50;99.90;;;2.23;100.00;101022.22;10552874;27;20060;-80
2022/12/03 08:53:58;;;;;;;36.73;16.93;;;4.50;99.90;;;2.34;100.00;101023.25;10560398;27;20059;-81
2022/12/03 08:59:12;;;;;;;34.93;14.70;;;4.60;99.90;;;2.52;100.00;101030.88;10608607;27;20060;-80
2022/12/03 09:04:54;;;;;;;36.27;15.83;;;4.80;99.90;;;2.68;100.00;101031.59;10607151;27;20419;-81
2022/12/03 09:09:57;;;;;;;29.15;13.70;;;5.00;99.90;;;2.91;100.00;101031.00;10609533;27;20129;-81
2022/12/03 09:15:00;;;;;;;30.90;14.50;;;5.20;99.90;;;3.13;100.00;101019.94;10622236;27;20051;-81
2022/12/03 09:20:05;;;;;;;24.77;12.33;;;5.40;99.90;;;3.25;100.00;101020.94;10593227;27;20515;-81
2022/12/03 09:25:08;;;;;;;27.37;13.67;;;5.50;99.90;;;3.41;100.00;101012.88;10565425;27;20060;-82
2022/12/03 09:30:12;;;;;;;25.00;11.83;;;5.70;99.90;;;3.57;100.00;101025.84;10626845;27;20051;-81
2022/12/03 09:35:15;;;;;;;25.97;12.70;;;5.80;99.90;;;3.62;100.00;101007.97;10611995;27;20538;-79
2022/12/03 09:40:19;;;;;;;29.13;12.23;;;5.90;99.90;;;3.68;100.00;101004.94;10589414;27;20059;-82
2022/12/03 09:45:22;;;;;;;62.17;29.50;;;6.00;99.90;;;3.82;100.00;101006.59;10553340;27;20064;-81
2022/12/03 09:50:26;;;;;;;43.23;22.17;;;6.10;99.90;;;3.87;100.00;101007.97;10591995;27;20071;-81
2022/12/03 09:55:30;;;;;;;44.57;20.07;;;6.20;99.90;;;3.89;100.00;100989.47;10606160;27;20134;-82
2022/12/03 10:00:33;;;;;;;32.17;16.13;;;6.20;99.90;;;4.00;100.00;100987.78;10601534;27;20159;-81
2022/12/03 10:05:36;;;;;;;40.07;18.67;;;6.30;99.90;;;4.01;99.67;100986.81;10608121;27;20067;-81
2022/12/03 10:10:40;;;;;;;28.70;13.40;;;6.30;99.90;;;4.09;99.48;100985.47;10587725;27;20059;-81
2022/12/03 10:15:43;;;;;;;28.17;13.37;;;6.40;99.90;;;4.18;98.96;100974.28;10592458;27;20047;-82
2022/12/03 10:20:47;;;;;;;28.57;12.87;;;6.40;99.90;;;4.32;98.12;100965.41;10594445;27;20526;-82
2022/12/03 10:26:01;;;;;;;24.37;12.90;;;6.60;99.90;;;4.48;96.83;100979.16;10606807;27;20075;-82
2022/12/03 10:31:10;;;;;;;29.97;13.30;;;6.70;99.90;;;4.67;96.47;100965.53;10592638;27;20446;-82
2022/12/03 10:36:18;;;;;;;32.73;13.50;;;6.90;99.90;;;4.86;96.04;100960.63;10610417;27;20530;-82
2022/12/03 10:41:27;;;;;;;37.63;15.73;;;7.10;99.90;;;4.96;95.00;100945.78;10608685;27;20109;-83
2022/12/03 10:46:30;;;;;;;24.30;13.10;;;7.20;99.90;;;5.08;94.30;100941.41;10608376;27;20086;-83
2022/12/03 10:51:33;;;;;;;37.63;16.07;;;7.30;99.90;;;5.17;93.69;100940.75;10609513;27;20059;-82
2022/12/03 10:56:36;;;;;;;44.63;17.73;;;7.40;99.90;;;5.26;92.61;100929.50;10563807;28;20064;-83
2022/12/03 11:01:39;;;;;;;32.83;13.83;;;7.50;99.90;;;5.33;92.26;100932.50;10572617;27;20060;-83
2022/12/03 11:06:43;;;;;;;70.20;20.87;;;7.60;99.90;;;5.32;90.95;100917.66;10585494;28;20067;-83
2022/12/03 11:11:46;;;;;;;108.80;32.97;;;7.60;99.90;;;5.27;90.37;100919.78;10567278;28;20056;-83
2022/12/03 11:17:12;;;;;;;35.87;14.97;;;7.50;99.90;;;5.30;90.08;100912.50;10600598;27;20095;-83
2022/12/03 11:22:23;;;;;;;26.80;12.87;;;7.50;99.90;;;5.47;90.52;100911.22;10599200;27;20055;-82
2022/12/03 11:27:26;;;;;;;34.40;14.07;;;7.70;99.90;;;5.63;90.30;100897.69;10562956;28;20451;-82
2022/12/03 11:32:42;;;;;;;38.97;14.73;;;7.90;99.90;;;5.61;88.05;100899.59;10543776;28;20091;-82
2022/12/03 11:37:45;;;;;;;30.60;13.13;;;7.90;99.90;;;5.49;87.51;100895.28;10567227;28;20508;-82
2022/12/03 11:42:48;;;;;;;27.73;13.33;;;7.80;99.90;;;5.40;87.51;100891.56;10561700;28;20134;-82
2022/12/03 11:47:57;;;;;;;34.03;14.50;;;7.80;99.90;;;5.52;87.42;100880.06;10563706;28;20502;-82
2022/12/03 11:53:10;;;;;;;25.03;12.77;;;7.80;99.90;;;5.74;87.33;100878.38;10581679;28;20063;-82
2022/12/03 11:58:28;;;;;;;34.00;13.70;;;8.00;99.90;;;5.90;86.80;100874.44;10579421;28;20084;-82
2022/12/03 12:03:49;;;;;;;28.17;13.20;;;8.20;99.90;;;5.92;86.26;100874.34;10581882;27;20064;-82
2022/12/03 12:08:59;;;;;;;34.30;13.55;;;8.20;99.90;;;5.95;86.05;100873.28;10583846;28;20060;-82
2022/12/03 12:14:07;;;;;;;31.90;14.40;;;8.20;99.90;;;5.99;86.02;100864.97;10544369;28;20060;-82
2022/12/03 12:19:44;;;;;;;37.70;14.63;;;8.30;99.90;;;5.99;85.61;100856.22;10567022;28;20090;-82
2022/12/03 12:25:01;;;;;;;26.47;12.80;;;8.30;99.90;;;5.99;85.41;100841.22;10558769;28;20460;-82
2022/12/03 12:30:17;;;;;;;26.57;11.73;;;8.30;99.90;;;5.99;85.06;100843.84;10552606;28;20056;-82
2022/12/03 12:35:26;;;;;;;20.10;10.67;;;8.30;99.90;;;5.95;85.17;100836.34;10513447;28;20519;-82
2022/12/03 12:40:32;;;;;;;24.20;11.47;;;8.30;99.90;;;5.89;84.85;100835.81;10580648;27;20530;-82
2022/12/03 12:45:40;;;;;;;36.73;13.73;;;8.20;99.90;;;5.81;85.16;100827.66;10578726;28;20052;-82
2022/12/03 12:50:47;;;;;;;30.30;12.83;;;8.10;99.90;;;5.73;85.23;100823.97;10565612;27;20054;-82
2022/12/03 12:56:00;;;;;;;28.40;13.30;;;8.00;99.90;;;5.65;85.51;100827.22;10602408;27;20068;-82
2022/12/03 13:01:10;;;;;;;24.10;11.57;;;8.00;99.90;;;5.56;85.67;100822.66;10587392;27;20059;-82
2022/12/03 13:06:15;;;;;;;25.20;11.30;;;7.90;99.90;;;5.48;85.84;100830.34;10594882;27;20134;-81
2022/12/03 13:11:23;;;;;;;20.73;9.93;;;7.80;99.90;;;5.41;86.13;100824.72;10619660;27;20062;-82
2022/12/03 13:16:31;;;;;;;19.53;9.50;;;7.70;99.90;;;5.37;86.16;100826.72;10581751;27;20055;-82
2022/12/03 13:21:41;;;;;;;18.80;9.60;;;7.70;99.90;;;5.36;86.53;100829.50;10594617;27;20081;-82
2022/12/03 13:26:44;;;;;;;19.30;10.30;;;7.70;99.90;;;5.37;87.00;100823.25;10588968;27;20055;-81
2022/12/03 13:32:00;;;;;;;18.37;8.87;;;7.70;99.90;;;5.42;87.21;100830.81;10592723;27;20060;-80
2022/12/03 13:37:21;;;;;;;20.30;10.00;;;7.70;99.90;;;5.43;87.29;100830.69;10603961;27;20060;-81
2022/12/03 13:42:39;;;;;;;18.13;9.47;;;7.70;99.90;;;5.41;87.01;100835.25;10584424;27;20147;-82
2022/12/03 13:47:54;;;;;;;19.97;8.53;;;7.70;99.90;;;5.38;86.97;100840.75;10622121;27;20146;-84
2022/12/03 13:53:01;;;;;;;20.23;9.73;;;7.70;99.90;;;5.36;87.10;100842.66;10586038;27;20051;-83
2022/12/03 13:58:04;;;;;;;17.07;8.57;;;7.60;99.90;;;5.34;87.37;100842.81;10586944;27;21495;-83
2022/12/03 14:03:07;;;;;;;15.23;8.67;;;7.60;99.90;;;5.30;87.30;100833.44;10594215;27;20063;-83
2022/12/03 14:08:10;;;;;;;15.77;8.40;;;7.60;99.90;;;5.28;87.44;100837.16;10596782;27;20070;-83
2022/12/03 14:13:13;;;;;;;15.67;7.80;;;7.60;99.90;;;5.27;87.47;100849.47;10597286;27;20138;-83
2022/12/03 14:18:31;;;;;;;15.77;8.50;;;7.60;99.90;;;5.24;87.58;100848.88;10569804;27;20136;-83
2022/12/03 14:23:34;;;;;;;18.67;10.17;;;7.50;99.90;;;5.21;87.84;100862.28;10580399;27;20068;-83
2022/12/03 14:28:37;;;;;;;17.43;8.83;;;7.50;99.90;;;5.19;87.81;100857.13;10575951;27;20066;-83
2022/12/03 14:33:40;;;;;;;16.73;8.77;;;7.50;99.90;;;5.14;87.89;100854.00;10621346;27;20109;-83
2022/12/03 14:38:43;;;;;;;18.67;9.93;;;7.40;99.90;;;5.08;87.95;100860.59;10616381;27;20388;-83
2022/12/03 14:43:46;;;;;;;19.63;10.20;;;7.40;99.90;;;5.07;88.25;100865.97;10606983;27;20062;-83
2022/12/03 14:48:49;;;;;;;27.13;12.57;;;7.30;99.90;;;5.01;88.43;100859.38;10625632;27;20063;-82
2022/12/03 14:53:52;;;;;;;20.47;10.60;;;7.30;99.90;;;4.98;88.63;100858.78;10627474;27;20411;-82
2022/12/03 14:58:55;;;;;;;22.00;11.10;;;7.30;99.90;;;4.94;88.76;100857.31;10605124;27;20056;-82
2022/12/03 15:03:58;;;;;;;17.87;9.57;;;7.20;99.90;;;4.91;89.00;100863.66;10595851;27;20109;-82
2022/12/03 15:09:01;;;;;;;17.90;8.80;;;7.20;99.90;;;4.86;89.17;100872.84;10620477;27;20052;-84
2022/12/03 15:14:05;;;;;;;19.37;9.70;;;7.20;99.90;;;4.82;89.48;100869.63;10602546;27;20060;-83
2022/12/03 15:19:09;;;;;;;15.30;8.70;;;7.10;99.90;;;4.78;89.77;100857.63;10584372;27;20156;-83
2022/12/03 15:24:12;;;;;;;27.77;11.73;;;7.10;99.90;;;4.77;89.86;100861.22;10577742;27;20503;-83
2022/12/03 15:29:14;;;;;;;44.37;21.43;;;7.10;99.90;;;4.72;90.16;100861.56;10562742;27;20063;-83
2022/12/03 15:34:17;;;;;;;36.43;16.17;;;7.10;99.90;;;4.70;90.54;100863.47;10568368;27;20056;-83
2022/12/03 15:39:25;;;;;;;28.00;12.67;;;7.00;99.90;;;4.69;90.54;100866.22;10607843;27;20060;-83
2022/12/03 15:44:28;;;;;;;25.10;12.23;;;7.00;99.90;;;4.62;90.75;100884.28;10580272;27;20384;-83
2022/12/03 15:49:31;;;;;;;18.83;9.87;;;7.00;99.90;;;4.53;nan;100877.88;10585767;27;20056;-83
2022/12/03 15:54:34;;;;;;;34.87;15.87;;;6.90;99.90;;;4.38;nan;100876.38;10610564;27;20094;-83
2022/12/03 15:59:37;;;;;;;40.10;19.60;;;6.80;99.90;;;4.16;91.25;100866.56;10578480;28;20072;-83
2022/12/03 16:04:40;;;;;;;44.37;21.73;;;6.60;99.90;;;3.99;91.24;100869.53;10609574;27;20063;-82
2022/12/03 16:09:43;;;;;;;57.57;25.83;;;6.40;99.90;;;3.80;91.45;100874.44;10626434;27;20055;-82
2022/12/03 16:14:46;;;;;;;44.23;19.70;;;6.20;99.90;;;3.58;91.68;100875.91;10598094;27;20051;-82
2022/12/03 16:19:49;;;;;;;50.83;20.93;;;6.00;99.90;;;3.38;92.07;100881.72;10604157;27;21699;-80
2022/12/03 16:24:52;;;;;;;57.60;22.63;;;5.80;99.90;;;3.19;92.42;100885.59;10612686;27;20471;-80
2022/12/03 16:29:55;;;;;;;83.50;25.60;;;5.70;99.90;;;2.99;92.84;100883.44;10596048;27;20059;-79
2022/12/03 16:34:59;;;;;;;62.67;24.47;;;5.50;99.90;;;2.81;93.24;100877.63;10609736;27;20066;-80
2022/12/03 16:40:02;;;;;;;63.83;21.90;;;5.30;99.90;;;2.65;93.36;100874.38;10577375;27;20062;-85
2022/12/03 16:50:10;;;;;;;55.53;22.43;;;4.90;99.90;;;2.34;94.51;100885.97;10572476;27;20091;-84
2022/12/03 16:55:22;;;;;;;48.03;18.90;;;4.80;99.90;;;2.19;94.83;100887.81;10613474;27;20047;-83
2022/12/03 17:00:26;;;;;;;42.30;20.40;;;4.60;99.90;;;2.07;95.48;100892.06;10606338;27;20077;-86
2022/12/03 17:05:29;;;;;;;45.30;18.90;;;4.50;99.90;;;1.96;95.64;100888.41;10613784;27;20056;-86
2022/12/03 17:10:32;;;;;;;38.77;17.93;;;4.40;99.90;;;1.89;96.21;100898.44;10618092;27;20098;-83
2022/12/03 17:15:35;;;;;;;38.67;18.43;;;4.30;99.90;;;1.81;96.73;100904.16;10618383;27;20061;-83
2022/12/03 17:20:38;;;;;;;43.97;20.53;;;4.20;99.90;;;1.76;97.11;100900.97;10622140;27;20392;-86
2022/12/03 17:25:41;;;;;;;53.13;22.30;;;4.20;99.90;;;1.71;97.61;100897.81;10616138;27;20101;-84
2022/12/03 17:30:44;;;;;;;43.63;20.27;;;4.10;99.90;;;1.68;98.20;100902.38;10614164;27;20071;-85
2022/12/03 17:35:47;;;;;;;42.57;18.37;;;4.10;99.90;;;1.67;98.90;100898.91;10639606;27;20499;-86
2022/12/03 17:40:51;;;;;;;44.90;20.83;;;4.10;99.90;;;1.62;98.83;100895.75;10614038;27;20511;-85
2022/12/03 17:45:54;;;;;;;46.97;20.53;;;4.00;99.90;;;1.58;98.98;100896.88;10593895;27;20060;-85
2022/12/03 17:50:57;;;;;;;44.27;20.03;;;4.00;99.90;;;1.54;99.31;100893.59;10588339;27;20167;-85
2022/12/03 17:56:00;;;;;;;35.40;16.70;;;4.00;99.90;;;1.49;99.57;100894.78;10591228;27;20068;-82
2022/12/03 18:01:04;;;;;;;46.23;18.73;;;3.90;99.90;;;1.44;100.00;100899.47;10572001;27;20370;-84
2022/12/03 18:06:07;;;;;;;45.93;18.53;;;3.90;99.90;;;1.36;100.00;100897.31;10610616;27;20065;-83
2022/12/03 18:11:10;;;;;;;44.67;18.57;;;3.80;99.90;;;1.28;100.00;100897.78;10591602;27;20500;-84
2022/12/03 18:16:14;;;;;;;43.77;20.13;;;3.70;99.90;;;1.20;100.00;100892.16;10592892;27;20059;-88
2022/12/03 18:21:17;;;;;;;38.87;17.40;;;3.60;99.90;;;1.14;100.00;100900.38;10593025;27;20059;-88
2022/12/03 18:26:20;;;;;;;40.67;18.00;;;3.60;99.90;;;1.05;100.00;100893.06;10577005;27;20462;-84
2022/12/03 18:31:23;;;;;;;44.83;20.07;;;3.50;99.90;;;1.00;100.00;100895.09;10607121;27;20063;-85
2022/12/03 18:36:32;;;;;;;37.97;17.27;;;3.50;99.90;;;0.94;100.00;100891.06;10596899;27;20066;-83
2022/12/03 18:41:35;;;;;;;44.80;21.80;;;3.40;99.90;;;0.89;100.00;100892.25;10586700;27;20071;-83
2022/12/03 18:46:39;;;;;;;39.87;18.67;;;3.30;99.90;;;0.84;100.00;100895.16;10611918;27;20055;-85
2022/12/03 18:51:57;;;;;;;59.23;23.93;;;3.30;99.90;;;0.85;100.00;100903.84;10611146;27;20066;-80
2022/12/03 18:57:01;;;;;;;55.67;23.27;;;3.30;99.90;;;0.82;100.00;100904.00;10564215;27;20062;-81
2022/12/03 19:02:06;;;;;;;62.30;26.07;;;3.30;99.90;;;0.78;100.00;100911.19;10595225;27;20056;-81
2022/12/03 19:07:12;;;;;;;66.10;26.83;;;3.20;99.90;;;0.75;100.00;100908.75;10569382;27;20105;-79
2022/12/03 19:12:15;;;;;;;53.70;22.83;;;3.20;99.90;;;0.73;100.00;100898.38;10552129;27;20060;-78
2022/12/03 19:17:18;;;;;;;49.13;21.67;;;3.20;99.90;;;0.72;100.00;100904.56;10554634;28;20056;-79
2022/12/03 19:22:21;;;;;;;43.17;19.60;;;3.20;99.90;;;0.70;100.00;100893.31;10572069;28;20056;-79
2022/12/03 19:27:24;;;;;;;42.27;19.17;;;3.10;99.90;;;0.69;100.00;100899.50;10605986;27;20105;-79
2022/12/03 19:32:27;;;;;;;42.17;17.90;;;3.20;99.90;;;0.68;100.00;100905.66;10567835;28;20526;-78
2022/12/03 19:37:35;;;;;;;43.27;18.07;;;3.10;99.90;;;0.66;100.00;100915.38;10583489;28;20055;-78
2022/12/03 19:42:39;;;;;;;43.83;18.73;;;3.10;99.90;;;0.66;100.00;100912.75;10566533;27;20082;-78
2022/12/03 19:47:42;;;;;;;41.90;17.93;;;3.10;99.90;;;0.65;100.00;100915.44;10539373;28;20454;-78
2022/12/03 19:52:45;;;;;;;52.30;19.93;;;3.10;99.90;;;0.64;100.00;100922.44;10588306;27;20044;-77
2022/12/03 19:57:50;;;;;;;52.40;24.50;;;3.10;99.90;;;0.64;100.00;100932.06;10580531;27;20155;-77
2022/12/03 20:02:53;;;;;;;55.03;21.60;;;3.10;99.90;;;0.62;100.00;100926.94;10579407;28;20055;-78
2022/12/03 20:07:56;;;;;;;59.23;23.97;;;3.10;99.90;;;0.60;100.00;100933.16;10562809;28;20538;-77
2022/12/03 20:12:59;;;;;;;53.37;22.67;;;3.00;99.90;;;0.62;100.00;100920.84;10539005;28;20139;-78
2022/12/03 20:18:03;;;;;;;58.60;23.57;;;3.00;99.90;;;0.62;100.00;100926.09;10563521;28;20499;-78
2022/12/03 20:23:05;;;;;;;57.23;23.87;;;3.00;99.90;;;0.62;100.00;100926.09;10552376;28;20063;-82
2022/12/03 20:28:08;;;;;;;40.33;18.77;;;3.10;99.90;;;0.66;100.00;100928.44;10541753;28;20546;-78
2022/12/03 20:33:12;;;;;;;45.87;20.57;;;3.10;99.90;;;0.73;100.00;100923.72;10575907;27;20052;-78
2022/12/03 20:38:15;;;;;;;45.37;20.43;;;3.10;99.90;;;0.80;100.00;100918.03;10548278;28;20426;-77
2022/12/03 20:43:18;;;;;;;45.07;19.77;;;3.20;99.90;;;0.84;100.00;100923.06;10564163;28;20053;-78
2022/12/03 20:48:22;;;;;;;43.40;18.43;;;3.20;99.90;;;0.85;100.00;100914.31;10556748;28;20384;-78
2022/12/03 20:53:24;;;;;;;43.77;19.73;;;3.30;99.90;;;0.87;100.00;100928.16;10568523;28;20056;-78
2022/12/03 20:58:29;;;;;;;37.90;17.87;;;3.30;99.90;;;0.88;100.00;100932.44;10581780;28;20139;-78
2022/12/03 21:03:33;;;;;;;46.00;20.17;;;3.30;99.90;;;0.91;100.00;100922.66;10569482;27;20071;-77
2022/12/03 21:08:36;;;;;;;45.07;20.77;;;3.30;99.90;;;0.94;100.00;100927.69;10590193;27;20056;-79
2022/12/03 21:13:45;;;;;;;41.27;18.40;;;3.30;99.90;;;0.93;100.00;100922.56;10575496;27;20091;-78
2022/12/03 21:18:48;;;;;;;50.33;22.43;;;3.30;99.90;;;0.90;100.00;100926.22;10615384;27;20071;-78
2022/12/03 21:23:51;;;;;;;48.03;21.27;;;3.30;99.90;;;0.89;100.00;100919.25;10580218;28;20060;-78
2022/12/03 21:28:54;;;;;;;51.67;22.80;;;3.30;99.90;;;0.90;100.00;100917.50;10597005;27;20052;-78
2022/12/03 21:33:58;;;;;;;56.57;24.50;;;3.30;99.90;;;0.95;100.00;100916.28;10567442;28;20539;-78